createdAt,value
2023-04-27T00:01:54.364Z,101321.09
2023-04-27T00:04:22.377Z,101317.75
2023-04-27T00:06:50.528Z,101315.56
2023-04-27T00:09:18.232Z,101318.56
2023-04-27T00:11:47.185Z,101318.06
2023-04-27T00:14:14.847Z,101313.91
2023-04-27T00:16:45.928Z,101306.97
2023-04-27T00:19:15.375Z,101314.06
2023-04-27T00:21:43.503Z,101311.19
2023-04-27T00:24:11.235Z,101314.25
2023-04-27T00:26:38.868Z,101312.31
2023-04-27T00:29:07.777Z,101306.44
2023-04-27T00:31:35.632Z,101305.25
2023-04-27T00:34:03.287Z,101306.94
2023-04-27T00:36:31.267Z,101302.22
2023-04-27T00:38:58.869Z,101308.13
2023-04-27T00:41:26.446Z,101309.81
2023-04-27T00:43:54.074Z,101307.78
2023-04-27T00:46:23.034Z,101309.31
2023-04-27T00:48:51.383Z,101312.50
2023-04-27T00:51:19.260Z,101311.50
2023-04-27T00:53:47.134Z,101311.50
2023-04-27T00:56:14.804Z,101306.28
2023-04-27T00:58:42.425Z,101309.97
2023-04-27T01:01:10.909Z,101312.66
2023-04-27T01:03:40.035Z,101317.06
2023-04-27T01:06:08.340Z,101318.72
2023-04-27T01:08:36.017Z,101323.81
2023-04-27T01:11:04.090Z,101321.41
2023-04-27T01:13:31.731Z,101312.16
2023-04-27T01:15:59.457Z,101320.06
2023-04-27T01:18:28.612Z,101322.25
2023-04-27T01:20:57.592Z,101319.38
2023-04-27T01:23:26.576Z,101327.31
2023-04-27T01:25:54.503Z,101328.16
2023-04-27T01:28:22.161Z,101335.91
2023-04-27T01:30:49.916Z,101332.50
2023-04-27T01:33:17.762Z,101333.03
2023-04-27T01:35:45.739Z,101340.09
2023-04-27T01:38:13.741Z,101349.03
2023-04-27T01:40:42.903Z,101348.19
2023-04-27T01:43:10.688Z,101346.66
2023-04-27T01:45:38.440Z,101353.69
2023-04-27T01:48:06.594Z,101366.81
2023-04-27T01:50:34.380Z,101370.19
2023-04-27T01:53:02.214Z,101364.53
2023-04-27T01:55:29.949Z,101375.44
2023-04-27T01:57:58.796Z,101382.69
2023-04-27T02:00:26.409Z,101387.41
2023-04-27T02:02:57.325Z,101385.75
2023-04-27T02:05:25.370Z,101400.22
2023-04-27T02:07:53.063Z,101396.31
2023-04-27T02:10:22.132Z,101399.31
2023-04-27T02:12:49.885Z,101403.53
2023-04-27T02:15:18.970Z,101404.06
2023-04-27T02:17:46.969Z,101407.25
2023-04-27T02:20:14.719Z,101408.94
2023-04-27T02:22:44.406Z,101406.91
2023-04-27T02:25:12.404Z,101409.53
2023-04-27T02:27:40.854Z,101410.50
2023-04-27T02:30:11.527Z,101410.84
2023-04-27T02:32:41.166Z,101412.22
2023-04-27T02:35:09.807Z,101417.59
2023-04-27T02:37:37.652Z,101412.22
2023-04-27T02:40:07.346Z,101407.50
2023-04-27T02:42:34.964Z,101405.66
2023-04-27T02:45:02.871Z,101402.44
2023-04-27T02:47:30.489Z,101405.78
2023-04-27T02:49:59.485Z,101408.16
2023-04-27T02:52:27.605Z,101403.09
2023-04-27T02:54:55.319Z,101405.72
2023-04-27T02:57:22.896Z,101407.00
2023-04-27T02:59:51.157Z,101405.38
2023-04-27T03:02:18.913Z,101407.69
2023-04-27T03:04:46.739Z,101399.13
2023-04-27T03:07:15.695Z,101396.97
2023-04-27T03:09:43.376Z,101400.97
2023-04-27T03:12:11.005Z,101397.97
2023-04-27T03:14:38.623Z,101405.66
2023-04-27T03:17:06.339Z,101407.13
2023-04-27T03:19:34.007Z,101398.44
2023-04-27T03:22:02.031Z,101403.66
2023-04-27T03:24:31.100Z,101401.81
2023-04-27T03:26:58.687Z,101406.19
2023-04-27T03:29:26.220Z,101404.66
2023-04-27T03:31:53.877Z,101405.75
2023-04-27T03:34:21.770Z,101402.41
2023-04-27T03:36:49.498Z,101408.78
2023-04-27T03:39:17.332Z,101416.34
2023-04-27T03:41:46.338Z,101418.88
2023-04-27T03:44:13.925Z,101424.00
2023-04-27T03:46:41.593Z,101419.72
2023-04-27T03:49:09.201Z,101418.19
2023-04-27T03:51:38.100Z,101413.56
2023-04-27T03:54:05.970Z,101424.72
2023-04-27T03:56:33.592Z,101428.59
2023-04-27T03:59:02.506Z,101427.22
2023-04-27T04:01:30.744Z,101434.31
2023-04-27T04:03:58.514Z,101436.84
2023-04-27T04:06:27.941Z,101431.16
2023-04-27T04:08:55.853Z,101428.69
2023-04-27T04:11:23.487Z,101430.94
2023-04-27T04:13:51.100Z,101427.63
2023-04-27T04:16:20.144Z,101434.25
2023-04-27T04:18:47.939Z,101433.69
2023-04-27T04:21:15.672Z,101438.00
2023-04-27T04:23:43.273Z,101437.06
2023-04-27T04:26:11.341Z,101443.16
2023-04-27T04:28:39.130Z,101432.09
2023-04-27T04:31:09.484Z,101447.25
2023-04-27T04:33:38.419Z,101446.75
2023-04-27T04:36:06.748Z,101446.81
2023-04-27T04:38:34.465Z,101438.63
2023-04-27T04:41:02.338Z,101431.31
2023-04-27T04:43:30.033Z,101436.75
2023-04-27T04:45:57.632Z,101440.31
2023-04-27T04:48:25.606Z,101437.31
2023-04-27T04:50:54.545Z,101447.25
2023-04-27T04:53:22.157Z,101447.53
2023-04-27T04:55:49.739Z,101446.47
2023-04-27T04:58:17.296Z,101445.84
2023-04-27T05:00:44.855Z,101443.09
2023-04-27T05:03:12.585Z,101445.53
2023-04-27T05:05:40.845Z,101453.38
2023-04-27T05:08:09.766Z,101456.13
2023-04-27T05:10:37.491Z,101456.38
2023-04-27T05:13:07.059Z,101455.78
2023-04-27T05:15:34.927Z,101456.13
2023-04-27T05:18:02.600Z,101450.31
2023-04-27T05:20:30.303Z,101460.91
2023-04-27T05:22:58.004Z,101459.22
2023-04-27T05:25:27.102Z,101464.38
2023-04-27T05:27:55.996Z,101470.44
2023-04-27T05:30:24.036Z,101470.91
2023-04-27T05:32:51.684Z,101463.06
2023-04-27T05:35:19.491Z,101466.91
2023-04-27T05:37:47.135Z,101472.97
2023-04-27T05:40:16.382Z,101483.28
2023-04-27T05:42:47.133Z,101483.69
2023-04-27T05:45:15.231Z,101484.19
2023-04-27T05:47:43.273Z,101489.38
2023-04-27T05:50:11.637Z,101490.06
2023-04-27T05:52:39.422Z,101488.75
2023-04-27T05:55:08.555Z,101493.00
2023-04-27T05:57:36.183Z,101494.44
2023-04-27T06:00:10.580Z,101496.19
2023-04-27T06:02:38.397Z,101499.28
2023-04-27T06:05:07.005Z,101503.91
2023-04-27T06:07:34.749Z,101501.03
2023-04-27T06:10:02.826Z,101497.09
2023-04-27T06:12:30.514Z,101506.50
2023-04-27T06:14:58.148Z,101501.28
2023-04-27T06:17:27.037Z,101499.59
2023-04-27T06:19:54.680Z,101507.88
2023-04-27T06:22:22.395Z,101507.63
2023-04-27T06:24:49.998Z,101517.94
2023-04-27T06:27:17.603Z,101516.19
2023-04-27T06:29:45.168Z,101518.03
2023-04-27T06:32:12.723Z,101513.59
2023-04-27T06:34:41.758Z,101514.06
2023-04-27T06:37:09.364Z,101510.75
2023-04-27T06:39:37.429Z,101512.81
2023-04-27T06:42:05.327Z,101514.38
2023-04-27T06:44:33.081Z,101523.81
2023-04-27T06:47:01.104Z,101519.81
2023-04-27T06:49:29.026Z,101524.06
2023-04-27T06:51:58.248Z,101525.44
2023-04-27T06:54:26.525Z,101516.66
2023-04-27T06:56:54.614Z,101533.16
2023-04-27T06:59:22.450Z,101523.91
2023-04-27T07:01:50.163Z,101530.78
2023-04-27T07:04:17.946Z,101527.81
2023-04-27T07:06:45.621Z,101529.22
2023-04-27T07:09:26.574Z,101517.22
2023-04-27T07:11:55.403Z,101521.50
2023-04-27T07:14:23.551Z,101522.69
2023-04-27T07:16:51.242Z,101525.28
2023-04-27T07:19:18.909Z,101524.97
2023-04-27T07:21:46.510Z,101520.75
2023-04-27T07:24:15.469Z,101523.66
2023-04-27T07:26:43.385Z,101526.28
2023-04-27T07:29:25.602Z,101522.44
2023-04-27T07:31:55.520Z,101515.72
2023-04-27T07:34:23.667Z,101516.72
2023-04-27T07:36:53.983Z,101523.13
2023-04-27T07:39:23.836Z,101521.97
2023-04-27T07:41:51.698Z,101533.28
2023-04-27T07:44:20.046Z,101534.97
2023-04-27T07:46:48.816Z,101522.81
2023-04-27T07:49:16.675Z,101536.16
2023-04-27T07:51:44.248Z,101528.38
2023-04-27T07:54:11.887Z,101528.56
2023-04-27T07:56:43.104Z,101520.97
2023-04-27T07:59:10.937Z,101516.22
2023-04-27T08:01:38.900Z,101519.06
2023-04-27T08:04:06.795Z,101515.34
2023-04-27T08:06:35.658Z,101515.22
2023-04-27T08:09:04.295Z,101508.81
2023-04-27T08:11:32.660Z,101509.97
2023-04-27T08:14:01.643Z,101511.78
2023-04-27T08:16:31.212Z,101522.78
2023-04-27T08:19:00.609Z,101515.06
2023-04-27T08:21:30.342Z,101506.09
2023-04-27T08:23:57.945Z,101511.66
2023-04-27T08:26:26.405Z,101509.94
2023-04-27T08:28:54.333Z,101505.03
2023-04-27T08:31:23.362Z,101505.16
2023-04-27T08:33:51.162Z,101501.31
2023-04-27T08:36:19.009Z,101500.59
2023-04-27T08:38:47.108Z,101501.97
2023-04-27T08:41:21.893Z,101497.97
2023-04-27T08:43:50.845Z,101506.09
2023-04-27T08:46:25.026Z,101501.38
2023-04-27T08:48:53.633Z,101505.41
2023-04-27T08:51:22.405Z,101507.44
2023-04-27T08:53:51.962Z,101499.97
2023-04-27T08:56:20.037Z,101491.84
2023-04-27T08:58:47.668Z,101495.66
2023-04-27T09:01:15.984Z,101486.63
2023-04-27T09:03:47.549Z,101488.97
2023-04-27T09:06:16.455Z,101490.97
2023-04-27T09:08:46.326Z,101493.00
2023-04-27T09:11:16.758Z,101492.53
2023-04-27T09:13:45.853Z,101483.84
2023-04-27T09:16:15.259Z,101483.91
2023-04-27T09:18:45.305Z,101489.28
2023-04-27T09:21:23.603Z,101489.69
2023-04-27T09:23:51.464Z,101489.59
2023-04-27T09:26:23.327Z,101487.41
2023-04-27T09:28:52.500Z,101484.75
2023-04-27T09:31:20.730Z,101488.81
2023-04-27T09:33:56.283Z,101494.94
2023-04-27T09:36:24.267Z,101490.22
2023-04-27T09:38:52.906Z,101490.88
2023-04-27T09:41:21.603Z,101482.06
2023-04-27T09:43:49.607Z,101480.47
2023-04-27T09:46:17.280Z,101478.19
2023-04-27T09:48:44.876Z,101480.13
2023-04-27T09:51:16.261Z,101466.69
2023-04-27T09:53:49.683Z,101468.91
2023-04-27T09:56:28.711Z,101469.66
2023-04-27T09:59:13.516Z,101469.13
2023-04-27T10:01:49.000Z,101465.16
2023-04-27T10:04:38.878Z,101463.88
2023-04-27T10:07:09.418Z,101472.63
2023-04-27T10:09:38.798Z,101471.91
2023-04-27T10:12:18.081Z,101470.84
2023-04-27T10:14:53.225Z,101479.00
2023-04-27T10:17:26.028Z,101475.81
2023-04-27T10:19:57.999Z,101471.31
2023-04-27T10:22:39.195Z,101470.84
2023-04-27T10:25:16.408Z,101472.28
2023-04-27T10:27:44.070Z,101465.59
2023-04-27T10:30:13.441Z,101465.41
2023-04-27T10:32:52.745Z,101460.19
2023-04-27T10:35:22.353Z,101462.06
2023-04-27T10:37:52.995Z,101470.56
2023-04-27T10:40:20.756Z,101463.63
2023-04-27T10:42:49.447Z,101463.84
2023-04-27T10:45:30.948Z,101465.06
2023-04-27T10:48:02.026Z,101452.84
2023-04-27T10:50:31.385Z,101467.34
2023-04-27T10:53:03.553Z,101467.53
2023-04-27T10:55:32.018Z,101456.09
2023-04-27T10:58:00.155Z,101465.63
2023-04-27T11:00:29.824Z,101460.91
2023-04-27T11:03:12.874Z,101450.97
2023-04-27T11:05:41.310Z,101454.19
2023-04-27T11:08:12.802Z,101448.50
2023-04-27T11:10:41.530Z,101463.31
2023-04-27T11:13:11.150Z,101456.81
2023-04-27T11:15:46.618Z,101443.38
2023-04-27T11:18:15.441Z,101445.63
2023-04-27T11:20:44.110Z,101455.47
2023-04-27T11:23:24.158Z,101453.25
2023-04-27T11:25:52.676Z,101454.28
2023-04-27T11:28:20.591Z,101455.50
2023-04-27T11:30:49.307Z,101451.47
2023-04-27T11:33:17.022Z,101452.97
2023-04-27T11:35:44.608Z,101453.34
2023-04-27T11:38:18.573Z,101460.81
2023-04-27T11:40:47.407Z,101452.75
2023-04-27T11:43:15.434Z,101458.75
2023-04-27T11:45:43.947Z,101449.88
2023-04-27T11:48:14.698Z,101444.84
2023-04-27T11:50:42.623Z,101446.91
2023-04-27T11:53:10.268Z,101442.97
2023-04-27T11:55:41.145Z,101442.59
2023-04-27T11:58:14.823Z,101436.63
2023-04-27T12:00:42.733Z,101433.53
2023-04-27T12:03:10.495Z,101442.88
2023-04-27T12:05:48.959Z,101440.91
2023-04-27T12:08:17.012Z,101439.88
2023-04-27T12:10:48.840Z,101440.97
2023-04-27T12:13:16.654Z,101435.56
2023-04-27T12:15:44.413Z,101436.13
2023-04-27T12:18:12.088Z,101434.91
2023-04-27T12:20:39.845Z,101432.69
2023-04-27T12:23:07.434Z,101429.78
2023-04-27T12:25:36.316Z,101430.31
2023-04-27T12:28:06.035Z,101425.38
2023-04-27T12:30:33.635Z,101424.75
2023-04-27T12:33:02.338Z,101427.47
2023-04-27T12:35:31.915Z,101420.00
2023-04-27T12:37:59.757Z,101414.88
2023-04-27T12:40:27.388Z,101413.69
2023-04-27T12:42:54.967Z,101415.28
2023-04-27T12:45:24.055Z,101407.47
2023-04-27T12:48:02.845Z,101409.16
2023-04-27T12:50:31.939Z,101403.91
2023-04-27T12:53:00.038Z,101398.34
2023-04-27T12:57:59.008Z,101397.69
2023-04-27T13:00:29.350Z,101396.47
2023-04-27T13:02:58.196Z,101388.78
2023-04-27T13:05:26.414Z,101394.41
2023-04-27T13:07:54.245Z,101394.78
2023-04-27T13:10:21.976Z,101386.00
2023-04-27T13:12:49.677Z,101392.16
2023-04-27T13:15:18.262Z,101393.63
2023-04-27T13:17:47.282Z,101397.00
2023-04-27T13:20:15.495Z,101396.94
2023-04-27T13:22:43.491Z,101398.09
2023-04-27T13:25:11.194Z,101393.56
2023-04-27T13:27:38.873Z,101402.81
2023-04-27T13:30:08.292Z,101401.00
2023-04-27T13:32:36.454Z,101407.13
2023-04-27T13:35:06.084Z,101398.50
2023-04-27T13:37:35.236Z,101396.72
2023-04-27T13:40:04.470Z,101392.53
2023-04-27T13:42:32.094Z,101396.84
2023-04-27T13:45:00.813Z,101401.25
2023-04-27T13:47:30.041Z,101388.78
2023-04-27T13:49:57.756Z,101387.16
2023-04-27T13:52:26.683Z,101384.00
2023-04-27T13:54:54.382Z,101383.53
2023-04-27T13:57:22.023Z,101380.56
2023-04-27T13:59:49.761Z,101379.16
2023-04-27T14:02:17.427Z,101381.44
2023-04-27T14:04:45.136Z,101376.22
2023-04-27T14:07:13.022Z,101385.59
2023-04-27T14:09:42.063Z,101380.31
2023-04-27T14:12:12.282Z,101368.19
2023-04-27T14:14:40.436Z,101374.28
2023-04-27T14:17:08.303Z,101368.38
2023-04-27T14:19:36.274Z,101367.25
2023-04-27T14:22:04.604Z,101366.75
2023-04-27T14:24:32.214Z,101366.28
2023-04-27T14:27:01.248Z,101361.19
2023-04-27T14:29:28.954Z,101355.69
2023-04-27T14:31:57.658Z,101344.31
2023-04-27T14:34:25.479Z,101342.84
2023-04-27T14:36:53.156Z,101344.03
2023-04-27T14:39:21.435Z,101338.72
2023-04-27T14:41:49.224Z,101334.72
2023-04-27T14:44:18.409Z,101332.72
2023-04-27T14:46:46.257Z,101337.91
2023-04-27T14:49:14.262Z,101337.34
2023-04-27T14:51:43.514Z,101329.19
2023-04-27T14:54:11.736Z,101331.53
2023-04-27T14:56:39.736Z,101340.06
2023-04-27T14:59:07.598Z,101329.34
2023-04-27T15:01:37.167Z,101330.06
2023-04-27T15:04:05.314Z,101326.34
2023-04-27T15:06:33.213Z,101336.53
2023-04-27T15:09:00.885Z,101334.47
2023-04-27T15:11:28.458Z,101330.91
2023-04-27T15:13:56.027Z,101330.53
2023-04-27T15:16:23.749Z,101326.34
2023-04-27T15:18:53.112Z,101335.13
2023-04-27T15:21:20.647Z,101325.28
2023-04-27T15:23:48.415Z,101310.84
2023-04-27T15:26:16.737Z,101321.31
2023-04-27T15:28:44.380Z,101310.84
2023-04-27T15:31:12.043Z,101302.66
2023-04-27T15:33:39.651Z,101317.72
2023-04-27T15:36:09.048Z,101311.84
2023-04-27T15:38:36.789Z,101318.91
2023-04-27T15:41:04.541Z,101316.38
2023-04-27T15:43:32.247Z,101318.81
2023-04-27T15:45:59.988Z,101310.44
2023-04-27T15:48:27.613Z,101298.53
2023-04-27T15:50:55.349Z,101309.81
2023-04-27T15:53:24.797Z,101308.97
2023-04-27T15:55:53.943Z,101299.28
2023-04-27T15:58:21.924Z,101304.94
2023-04-27T16:00:49.611Z,101296.16
2023-04-27T16:03:17.426Z,101293.63
2023-04-27T16:05:45.399Z,101295.72
2023-04-27T16:08:12.959Z,101290.50
2023-04-27T16:10:41.883Z,101290.47
2023-04-27T16:13:09.490Z,101298.16
2023-04-27T16:15:37.098Z,101296.91
2023-04-27T16:18:04.751Z,101290.25
2023-04-27T16:20:34.203Z,101291.88
2023-04-27T16:23:03.870Z,101289.56
2023-04-27T16:25:31.557Z,101286.03
2023-04-27T16:28:00.763Z,101281.41
2023-04-27T16:30:28.378Z,101277.25
2023-04-27T16:32:56.508Z,101280.81
2023-04-27T16:35:24.135Z,101283.84
2023-04-27T16:37:53.737Z,101281.41
2023-04-27T16:40:21.601Z,101277.47
2023-04-27T16:42:49.515Z,101273.91
2023-04-27T16:45:19.030Z,101284.59
2023-04-27T16:47:47.539Z,101279.78
2023-04-27T16:50:15.295Z,101289.41
2023-04-27T16:52:43.619Z,101287.91
2023-04-27T16:55:11.307Z,101294.63
2023-04-27T16:57:38.933Z,101291.53
2023-04-27T17:00:09.577Z,101296.91
2023-04-27T17:02:40.002Z,101288.97
2023-04-27T17:05:10.290Z,101296.03
2023-04-27T17:07:38.189Z,101288.50
2023-04-27T17:10:08.980Z,101296.47
2023-04-27T17:12:37.116Z,101298.22
2023-04-27T17:15:06.013Z,101291.94
2023-04-27T17:17:34.668Z,101288.56
2023-04-27T17:20:05.664Z,101292.47
2023-04-27T17:22:33.890Z,101285.38
2023-04-27T17:25:01.947Z,101289.75
2023-04-27T17:27:29.795Z,101279.97
2023-04-27T17:29:57.994Z,101279.56
2023-04-27T17:32:26.211Z,101282.06
2023-04-27T17:34:53.867Z,101281.56
2023-04-27T17:37:22.816Z,101273.03
2023-04-27T17:39:51.639Z,101275.97
2023-04-27T17:42:19.630Z,101265.09
2023-04-27T17:44:47.472Z,101276.34
2023-04-27T17:47:15.165Z,101282.78
2023-04-27T17:49:42.736Z,101277.78
2023-04-27T17:52:10.449Z,101279.47
2023-04-27T17:54:40.974Z,101284.66
2023-04-27T17:57:09.040Z,101283.53
2023-04-27T17:59:37.260Z,101274.72
2023-04-27T18:02:04.969Z,101275.09
2023-04-27T18:04:33.121Z,101271.25
2023-04-27T18:07:00.798Z,101267.50
2023-04-27T18:09:30.106Z,101268.78
2023-04-27T18:12:00.723Z,101262.72
2023-04-27T18:14:28.393Z,101268.88
2023-04-27T18:16:56.091Z,101254.47
2023-04-27T18:19:23.846Z,101263.66
2023-04-27T18:21:51.722Z,101263.66
2023-04-27T18:24:19.401Z,101260.22
2023-04-27T18:26:47.222Z,101262.28
2023-04-27T18:29:16.483Z,101267.44
2023-04-27T18:31:44.268Z,101268.13
2023-04-27T18:34:11.956Z,101272.31
2023-04-27T18:36:39.644Z,101267.28
2023-04-27T18:39:07.398Z,101266.91
2023-04-27T18:41:35.005Z,101276.59
2023-04-27T18:44:07.072Z,101268.28
2023-04-27T18:46:36.218Z,101269.72
2023-04-27T18:49:04.336Z,101274.91
2023-04-27T18:51:32.429Z,101276.53
2023-04-27T18:54:00.349Z,101271.28
2023-04-27T18:56:28.107Z,101268.31
2023-04-27T18:58:55.981Z,101269.09
2023-04-27T19:01:25.041Z,101275.59
2023-04-27T19:03:54.900Z,101270.91
2023-04-27T19:06:22.766Z,101273.63
2023-04-27T19:08:51.024Z,101271.69
2023-04-27T19:11:22.069Z,101276.69
2023-04-27T19:13:51.266Z,101275.63
2023-04-27T19:16:19.250Z,101270.78
2023-04-27T19:18:47.076Z,101265.72
2023-04-27T19:21:16.317Z,101270.13
2023-04-27T19:23:45.050Z,101271.16
2023-04-27T19:26:13.891Z,101275.28
2023-04-27T19:28:42.294Z,101262.94
2023-04-27T19:31:10.335Z,101255.00
2023-04-27T19:33:38.060Z,101262.03
2023-04-27T19:36:06.222Z,101265.56
2023-04-27T19:38:35.632Z,101265.97
2023-04-27T19:41:04.225Z,101265.97
2023-04-27T19:43:31.971Z,101263.75
2023-04-27T19:46:00.460Z,101259.19
2023-04-27T19:48:28.116Z,101261.22
2023-04-27T19:50:55.839Z,101263.75
2023-04-27T19:53:23.544Z,101266.28
2023-04-27T19:55:53.016Z,101256.66
2023-04-27T19:58:20.662Z,101252.81
2023-04-27T20:00:48.245Z,101258.63
2023-04-27T20:03:16.317Z,101259.84
2023-04-27T20:05:44.694Z,101268.09
2023-04-27T20:08:12.739Z,101269.25
2023-04-27T20:10:40.990Z,101263.63
2023-04-27T20:13:09.930Z,101265.88
2023-04-27T20:15:37.600Z,101263.16
2023-04-27T20:18:05.550Z,101266.19
2023-04-27T20:20:33.366Z,101267.00
2023-04-27T20:23:01.220Z,101269.72
2023-04-27T20:25:31.345Z,101267.78
2023-04-27T20:27:59.076Z,101270.50
2023-04-27T20:30:28.593Z,101270.50
2023-04-27T20:32:56.454Z,101273.84
2023-04-27T20:35:24.233Z,101267.41
2023-04-27T20:37:52.019Z,101263.38
2023-04-27T20:40:20.273Z,101268.06
2023-04-27T20:42:49.324Z,101265.16
2023-04-27T20:45:17.787Z,101264.97
2023-04-27T20:47:46.926Z,101263.28
2023-04-27T20:50:14.582Z,101260.94
2023-04-27T20:52:42.261Z,101254.88
2023-04-27T20:55:10.144Z,101257.50
2023-04-27T20:57:38.000Z,101255.00
2023-04-27T21:00:10.112Z,101250.13
2023-04-27T21:02:37.925Z,101248.34
2023-04-27T21:05:07.212Z,101239.09
2023-04-27T21:07:35.001Z,101237.41
2023-04-27T21:10:06.239Z,101240.88
2023-04-27T21:12:34.436Z,101246.94
2023-04-27T21:15:03.872Z,101240.78
2023-04-27T21:17:31.512Z,101237.22
2023-04-27T21:20:00.305Z,101239.28
2023-04-27T21:22:29.258Z,101240.97
2023-04-27T21:24:56.892Z,101240.13
2023-04-27T21:27:25.067Z,101244.22
2023-04-27T21:29:53.199Z,101237.78
2023-04-27T21:32:20.906Z,101226.09
2023-04-27T21:34:48.651Z,101228.66
2023-04-27T21:37:16.365Z,101229.66
2023-04-27T21:39:45.365Z,101223.97
2023-04-27T21:42:12.980Z,101225.38
2023-04-27T21:44:40.636Z,101229.38
2023-04-27T21:47:08.508Z,101229.38
2023-04-27T21:49:36.133Z,101225.38
2023-04-27T21:52:03.743Z,101234.22
2023-04-27T21:54:31.539Z,101229.28
2023-04-27T21:57:00.453Z,101226.38
2023-04-27T21:59:28.086Z,101218.25
2023-04-27T22:01:56.222Z,101222.56
2023-04-27T22:04:25.112Z,101227.78
2023-04-27T22:06:52.995Z,101214.50
2023-04-27T22:09:20.691Z,101221.00
2023-04-27T22:11:48.269Z,101215.97
2023-04-27T22:14:17.299Z,101212.25
2023-04-27T22:16:45.072Z,101204.63
2023-04-27T22:19:13.116Z,101203.31
2023-04-27T22:21:40.760Z,101202.59
2023-04-27T22:24:08.898Z,101193.63
2023-04-27T22:26:36.470Z,101192.50
2023-04-27T22:29:04.021Z,101191.19
2023-04-27T22:31:33.166Z,101189.50
2023-04-27T22:34:00.952Z,101188.28
2023-04-27T22:36:28.785Z,101186.97
2023-04-27T22:38:57.180Z,101182.97
2023-04-27T22:41:24.859Z,101182.28
2023-04-27T22:43:52.507Z,101173.03
2023-04-27T22:46:20.094Z,101171.53
2023-04-27T22:48:50.272Z,101170.34
2023-04-27T22:51:17.870Z,101165.34
2023-04-27T22:53:45.716Z,101170.22
2023-04-27T22:56:13.319Z,101164.56
2023-04-27T22:58:40.979Z,101162.13
2023-04-27T23:01:08.700Z,101162.94
2023-04-27T23:03:36.411Z,101155.50
2023-04-27T23:06:07.320Z,101160.09
2023-04-27T23:08:34.882Z,101160.91
2023-04-27T23:11:02.824Z,101161.94
2023-04-27T23:13:31.427Z,101154.19
2023-04-27T23:15:59.045Z,101158.47
2023-04-27T23:18:26.880Z,101151.91
2023-04-27T23:20:55.505Z,101141.94
2023-04-27T23:23:24.598Z,101145.28
2023-04-27T23:25:52.139Z,101130.53
2023-04-27T23:28:20.690Z,101134.97
2023-04-27T23:30:53.736Z,101130.66
2023-04-27T23:33:21.660Z,101129.81
2023-04-27T23:35:49.291Z,101132.34
2023-04-27T23:38:16.956Z,101139.50
2023-04-27T23:40:45.838Z,101131.31
2023-04-27T23:43:13.424Z,101129.34
2023-04-27T23:45:41.179Z,101121.41
2023-04-27T23:48:08.837Z,101119.78
2023-04-27T23:50:36.498Z,101121.66
2023-04-27T23:53:04.075Z,101107.91
2023-04-27T23:55:31.664Z,101117.78
2023-04-27T23:58:00.803Z,101104.16
